createdAt,value
2023-05-06T00:02:57.309Z,100389.75
2023-05-06T00:05:59.995Z,100393.22
2023-05-06T00:09:02.640Z,100388.81
2023-05-06T00:12:05.609Z,100388.66
2023-05-06T00:15:08.847Z,100388.63
2023-05-06T00:18:11.605Z,100386.81
2023-05-06T00:21:14.209Z,100395.47
2023-05-06T00:24:16.794Z,100384.03
2023-05-06T00:27:19.382Z,100391.06
2023-05-06T00:30:22.160Z,100395.38
2023-05-06T00:33:24.762Z,100400.53
2023-05-06T00:36:27.882Z,100400.53
2023-05-06T00:39:30.687Z,100397.00
2023-05-06T00:42:33.392Z,100398.75
2023-05-06T00:45:36.658Z,100398.59
2023-05-06T00:48:39.580Z,100405.44
2023-05-06T00:51:42.206Z,100400.16
2023-05-06T00:54:44.858Z,100394.91
2023-05-06T00:57:49.551Z,100398.19
2023-05-06T01:00:52.467Z,100397.19
2023-05-06T01:03:58.456Z,100397.06
2023-05-06T01:07:01.531Z,100398.81
2023-05-06T01:10:19.980Z,100400.50
2023-05-06T01:13:52.000Z,100397.78
2023-05-06T01:16:56.563Z,100395.00
2023-05-06T01:19:59.878Z,100403.78
2023-05-06T01:23:06.837Z,100400.19
2023-05-06T01:26:09.473Z,100396.44
2023-05-06T01:29:12.238Z,100389.47
2023-05-06T01:32:29.983Z,100389.50
2023-05-06T01:35:32.877Z,100391.22
2023-05-06T01:38:42.012Z,100383.41
2023-05-06T01:41:48.796Z,100377.19
2023-05-06T01:44:52.941Z,100376.09
2023-05-06T01:47:56.728Z,100375.22
2023-05-06T01:50:59.398Z,100378.66
2023-05-06T01:54:02.384Z,100369.03
2023-05-06T01:57:05.032Z,100380.41
2023-05-06T02:00:09.910Z,100377.62
2023-05-06T02:03:14.507Z,100382.94
2023-05-06T02:06:17.694Z,100380.34
2023-05-06T02:09:20.588Z,100376.06
2023-05-06T02:12:25.181Z,100377.97
2023-05-06T02:15:29.053Z,100380.50
2023-05-06T02:18:32.293Z,100381.44
2023-05-06T02:21:34.727Z,100389.41
2023-05-06T02:24:37.683Z,100378.06
2023-05-06T02:27:40.026Z,100375.56
2023-05-06T02:30:42.976Z,100376.37
2023-05-06T02:33:45.523Z,100384.31
2023-05-06T02:36:48.433Z,100383.44
2023-05-06T02:39:50.830Z,100384.38
2023-05-06T02:42:53.710Z,100377.31
2023-05-06T02:45:56.050Z,100390.47
2023-05-06T02:48:58.954Z,100386.97
2023-05-06T02:52:01.227Z,100383.31
2023-05-06T02:55:05.757Z,100390.22
2023-05-06T02:58:08.202Z,100386.59
2023-05-06T03:01:11.351Z,100398.03
2023-05-06T03:04:13.884Z,100397.13
2023-05-06T03:07:16.779Z,100397.13
2023-05-06T03:10:19.476Z,100397.13
2023-05-06T03:13:22.628Z,100389.25
2023-05-06T03:16:25.303Z,100397.09
2023-05-06T03:19:29.035Z,100394.44
2023-05-06T03:22:31.415Z,100388.25
2023-05-06T03:25:34.418Z,100393.50
2023-05-06T03:28:36.985Z,100395.12
2023-05-06T03:31:40.846Z,100386.31
2023-05-06T03:34:43.829Z,100381.94
2023-05-06T03:37:47.707Z,100381.84
2023-05-06T03:40:50.821Z,100381.69
2023-05-06T03:43:55.761Z,100378.25
2023-05-06T03:46:58.795Z,100377.44
2023-05-06T03:50:02.944Z,100376.63
2023-05-06T03:53:06.248Z,100381.19
2023-05-06T03:56:09.882Z,100384.69
2023-05-06T03:59:13.166Z,100382.94
2023-05-06T04:02:17.357Z,100381.06
2023-05-06T04:05:20.290Z,100392.47
2023-05-06T04:08:23.126Z,100390.69
2023-05-06T04:11:26.428Z,100403.84
2023-05-06T04:14:31.363Z,100401.91
2023-05-06T04:17:34.218Z,100401.84
2023-05-06T04:20:37.095Z,100409.72
2023-05-06T04:23:39.849Z,100402.75
2023-05-06T04:26:42.669Z,100393.28
2023-05-06T04:29:46.144Z,100403.88
2023-05-06T04:32:48.791Z,100406.56
2023-05-06T04:35:56.244Z,100406.56
2023-05-06T04:38:59.769Z,100411.81
2023-05-06T04:42:03.438Z,100412.94
2023-05-06T04:45:07.260Z,100410.97
2023-05-06T04:48:11.153Z,100403.09
2023-05-06T04:51:14.160Z,100411.81
2023-05-06T04:54:16.878Z,100418.72
2023-05-06T04:57:19.636Z,100417.97
2023-05-06T05:00:22.417Z,100427.50
2023-05-06T05:03:25.623Z,100421.31
2023-05-06T05:06:28.927Z,100428.59
2023-05-06T05:09:31.750Z,100438.28
2023-05-06T05:12:34.488Z,100433.87
2023-05-06T05:15:37.953Z,100438.28
2023-05-06T05:18:41.405Z,100436.78
2023-05-06T05:21:44.827Z,100442.84
2023-05-06T05:24:48.503Z,100442.06
2023-05-06T05:27:52.098Z,100438.84
2023-05-06T05:30:55.171Z,100431.88
2023-05-06T05:33:57.647Z,100435.44
2023-05-06T05:37:00.822Z,100430.34
2023-05-06T05:40:04.669Z,100431.41
2023-05-06T05:43:07.865Z,100432.34
2023-05-06T05:46:10.650Z,100427.19
2023-05-06T05:49:14.038Z,100431.09
2023-05-06T05:52:16.945Z,100424.16
2023-05-06T05:55:20.047Z,100427.72
2023-05-06T05:58:22.900Z,100422.53
2023-05-06T06:01:26.917Z,100427.03
2023-05-06T06:04:29.748Z,100426.41
2023-05-06T06:07:33.408Z,100426.66
2023-05-06T06:10:36.060Z,100418.91
2023-05-06T06:13:39.127Z,100421.75
2023-05-06T06:16:41.777Z,100421.25
2023-05-06T06:19:47.782Z,100420.47
2023-05-06T06:22:50.712Z,100419.69
2023-05-06T06:25:53.502Z,100422.56
2023-05-06T06:28:56.279Z,100426.50
2023-05-06T06:31:59.486Z,100416.84
2023-05-06T06:35:02.135Z,100416.94
2023-05-06T06:38:04.798Z,100420.50
2023-05-06T06:41:07.451Z,100418.84
2023-05-06T06:44:10.089Z,100415.41
2023-05-06T06:47:12.699Z,100420.81
2023-05-06T06:50:15.387Z,100405.12
2023-05-06T06:53:18.161Z,100402.56
2023-05-06T06:56:21.964Z,100407.84
2023-05-06T06:59:24.690Z,100402.66
2023-05-06T07:02:27.357Z,100399.22
2023-05-06T07:05:30.152Z,100398.41
2023-05-06T07:08:32.752Z,100399.31
2023-05-06T07:11:35.392Z,100407.34
2023-05-06T07:14:37.946Z,100394.06
2023-05-06T07:17:40.572Z,100392.25
2023-05-06T07:20:43.181Z,100398.44
2023-05-06T07:23:45.941Z,100406.34
2023-05-06T07:26:48.540Z,100406.31
2023-05-06T07:29:51.494Z,100401.81
2023-05-06T07:32:54.185Z,100399.03
2023-05-06T07:35:56.782Z,100402.38
2023-05-06T07:38:59.532Z,100399.63
2023-05-06T07:42:02.106Z,100392.28
2023-05-06T07:45:05.342Z,100402.69
2023-05-06T07:48:08.132Z,100399.06
2023-05-06T07:51:10.758Z,100395.19
2023-05-06T07:54:13.372Z,100390.69
2023-05-06T07:57:16.266Z,100396.97
2023-05-06T08:00:18.944Z,100399.66
2023-05-06T08:03:22.634Z,100397.06
2023-05-06T08:06:25.121Z,100398.56
2023-05-06T08:09:28.155Z,100398.12
2023-05-06T08:12:30.656Z,100393.06
2023-05-06T08:15:33.568Z,100402.34
2023-05-06T08:18:35.872Z,100394.56
2023-05-06T08:21:38.788Z,100404.94
2023-05-06T08:24:41.076Z,100396.56
2023-05-06T08:27:43.954Z,100402.53
2023-05-06T08:30:48.441Z,100402.87
2023-05-06T08:33:54.353Z,100396.16
2023-05-06T08:36:57.143Z,100395.09
2023-05-06T08:40:00.261Z,100391.69
2023-05-06T08:43:02.852Z,100392.53
2023-05-06T08:46:05.768Z,100392.00
2023-05-06T08:49:08.221Z,100393.41
2023-05-06T08:52:11.804Z,100394.34
2023-05-06T08:55:14.580Z,100386.69
2023-05-06T08:58:19.097Z,100380.75
2023-05-06T09:01:22.133Z,100379.53
2023-05-06T09:04:25.044Z,100373.47
2023-05-06T09:07:27.620Z,100372.47
2023-05-06T09:10:37.988Z,100374.81
2023-05-06T09:13:40.490Z,100375.63
2023-05-06T09:16:44.925Z,100361.59
2023-05-06T09:19:47.593Z,100360.47
2023-05-06T09:22:50.680Z,100360.84
2023-05-06T09:25:53.343Z,100361.66
2023-05-06T09:28:57.910Z,100354.75
2023-05-06T09:32:04.614Z,100351.66
2023-05-06T09:35:08.462Z,100348.78
2023-05-06T09:38:10.996Z,100350.41
2023-05-06T09:41:14.392Z,100346.69
2023-05-06T09:44:17.529Z,100348.06
2023-05-06T09:47:33.531Z,100347.78
2023-05-06T09:50:36.157Z,100347.09
2023-05-06T09:53:39.184Z,100340.72
2023-05-06T09:56:42.763Z,100338.03
2023-05-06T09:59:47.372Z,100332.53
2023-05-06T10:02:50.068Z,100324.59
2023-05-06T10:05:54.486Z,100324.81
2023-05-06T10:08:57.112Z,100319.03
2023-05-06T10:12:00.740Z,100315.25
2023-05-06T10:15:04.447Z,100304.84
2023-05-06T10:18:07.426Z,100313.94
2023-05-06T10:21:14.119Z,100307.78
2023-05-06T10:24:19.339Z,100300.28
2023-05-06T10:27:24.649Z,100297.38
2023-05-06T10:30:28.567Z,100300.81
2023-05-06T10:33:31.424Z,100297.91
2023-05-06T10:36:36.367Z,100303.22
2023-05-06T10:39:42.048Z,100299.56
2023-05-06T10:42:45.127Z,100286.91
2023-05-06T10:46:06.785Z,100282.22
2023-05-06T10:49:13.825Z,100279.41
2023-05-06T10:52:17.421Z,100274.78
2023-05-06T10:55:30.054Z,100270.97
2023-05-06T10:58:36.062Z,100270.19
2023-05-06T11:01:42.646Z,100262.50
2023-05-06T11:04:50.271Z,100260.34
2023-05-06T11:08:06.651Z,100257.28
2023-05-06T11:11:27.802Z,100254.37
2023-05-06T11:14:31.682Z,100245.19
2023-05-06T11:17:34.971Z,100252.91
2023-05-06T11:20:37.930Z,100253.66
2023-05-06T11:23:43.506Z,100253.94
2023-05-06T11:26:47.714Z,100268.69
2023-05-06T11:29:50.026Z,100254.22
2023-05-06T11:32:55.449Z,100254.56
2023-05-06T11:35:57.892Z,100256.34
2023-05-06T11:39:05.337Z,100258.13
2023-05-06T11:42:08.770Z,100255.78
2023-05-06T11:45:12.000Z,100255.06
2023-05-06T11:48:15.111Z,100262.28
2023-05-06T11:51:27.149Z,100260.25
2023-05-06T11:54:29.455Z,100257.16
2023-05-06T11:57:33.286Z,100253.19
2023-05-06T12:00:35.918Z,100254.97
2023-05-06T12:03:38.848Z,100257.00
2023-05-06T12:06:41.318Z,100251.81
2023-05-06T12:09:48.565Z,100254.13
2023-05-06T12:12:51.089Z,100254.37
2023-05-06T12:15:55.116Z,100257.84
2023-05-06T12:18:57.610Z,100258.75
2023-05-06T12:22:18.770Z,100256.69
2023-05-06T12:25:21.041Z,100251.00
2023-05-06T12:28:26.979Z,100259.78
2023-05-06T12:31:29.374Z,100245.75
2023-05-06T12:34:39.266Z,100250.00
2023-05-06T12:37:41.634Z,100249.28
2023-05-06T12:40:45.697Z,100240.03
2023-05-06T12:43:48.096Z,100238.47
2023-05-06T12:46:52.633Z,100235.81
2023-05-06T12:49:56.021Z,100236.63
2023-05-06T12:52:58.898Z,100243.66
2023-05-06T12:56:01.281Z,100240.87
2023-05-06T12:59:04.433Z,100229.09
2023-05-06T13:02:06.954Z,100231.62
2023-05-06T13:05:09.999Z,100231.44
2023-05-06T13:08:12.574Z,100229.50
2023-05-06T13:11:15.519Z,100234.91
2023-05-06T13:14:17.883Z,100237.06
2023-05-06T13:17:20.885Z,100232.81
2023-05-06T13:20:23.287Z,100234.75
2023-05-06T13:23:26.203Z,100228.66
2023-05-06T13:26:28.603Z,100231.34
2023-05-06T13:29:31.926Z,100230.84
2023-05-06T13:32:34.257Z,100230.94
2023-05-06T13:35:37.185Z,100218.47
2023-05-06T13:38:39.656Z,100225.59
2023-05-06T13:41:42.813Z,100225.47
2023-05-06T13:44:45.098Z,100234.56
2023-05-06T13:47:47.986Z,100238.25
2023-05-06T13:50:50.743Z,100236.66
2023-05-06T13:53:53.654Z,100243.69
2023-05-06T13:56:56.415Z,100246.53
2023-05-06T13:59:59.309Z,100244.47
2023-05-06T14:03:02.165Z,100253.53
2023-05-06T14:06:05.347Z,100254.41
2023-05-06T14:09:08.135Z,100255.50
2023-05-06T14:12:10.982Z,100252.94
2023-05-06T14:15:15.031Z,100251.44
2023-05-06T14:18:18.072Z,100245.28
2023-05-06T14:21:20.846Z,100241.03
2023-05-06T14:24:23.779Z,100249.25
2023-05-06T14:27:26.406Z,100245.50
2023-05-06T14:30:30.002Z,100253.72
2023-05-06T14:33:32.926Z,100246.84
2023-05-06T14:36:35.888Z,100247.00
2023-05-06T14:39:38.382Z,100243.69
2023-05-06T14:42:41.310Z,100243.81
2023-05-06T14:45:43.911Z,100238.62
2023-05-06T14:48:46.933Z,100236.97
2023-05-06T14:51:49.936Z,100237.03
2023-05-06T14:54:52.868Z,100243.28
2023-05-06T14:57:55.251Z,100238.03
2023-05-06T15:00:58.219Z,100227.34
2023-05-06T15:04:00.738Z,100224.84
2023-05-06T15:07:04.039Z,100222.34
2023-05-06T15:10:06.941Z,100218.91
2023-05-06T15:13:09.970Z,100214.66
2023-05-06T15:16:12.555Z,100214.75
2023-05-06T15:19:15.502Z,100228.94
2023-05-06T15:22:17.836Z,100225.44
2023-05-06T15:25:34.407Z,100224.50
2023-05-06T15:28:37.652Z,100217.47
2023-05-06T15:31:41.259Z,100213.13
2023-05-06T15:34:43.701Z,100209.56
2023-05-06T15:37:46.618Z,100207.00
2023-05-06T15:40:52.267Z,100200.78
2023-05-06T15:43:56.551Z,100199.03
2023-05-06T15:46:58.804Z,100202.56
2023-05-06T15:50:01.962Z,100198.12
2023-05-06T15:53:04.350Z,100206.13
2023-05-06T15:56:17.668Z,100212.28
2023-05-06T15:59:20.809Z,100207.00
2023-05-06T16:02:27.170Z,100207.88
2023-05-06T16:05:31.097Z,100209.63
2023-05-06T16:08:33.890Z,100205.12
2023-05-06T16:11:36.457Z,100205.09
2023-05-06T16:14:39.042Z,100205.88
2023-05-06T16:17:41.893Z,100197.06
2023-05-06T16:20:44.495Z,100200.59
2023-05-06T16:23:47.322Z,100198.88
2023-05-06T16:26:49.952Z,100207.69
2023-05-06T16:29:52.630Z,100205.09
2023-05-06T16:32:55.329Z,100207.75
2023-05-06T16:35:57.950Z,100213.97
2023-05-06T16:39:00.596Z,100205.19
2023-05-06T16:42:03.668Z,100217.56
2023-05-06T16:45:07.151Z,100221.09
2023-05-06T16:48:09.919Z,100225.53
2023-05-06T16:51:14.379Z,100225.53
2023-05-06T16:54:17.085Z,100226.44
2023-05-06T16:57:19.831Z,100227.31
2023-05-06T17:00:23.636Z,100226.47
2023-05-06T17:03:26.358Z,100229.09
2023-05-06T17:06:31.299Z,100222.94
2023-05-06T17:09:33.977Z,100225.59
2023-05-06T17:12:36.638Z,100209.72
2023-05-06T17:15:39.340Z,100211.50
2023-05-06T17:18:41.988Z,100206.19
2023-05-06T17:21:44.590Z,100203.50
2023-05-06T17:24:47.392Z,100204.38
2023-05-06T17:27:49.983Z,100207.03
2023-05-06T17:30:52.587Z,100200.88
2023-05-06T17:33:55.290Z,100201.75
2023-05-06T17:36:57.904Z,100209.69
2023-05-06T17:40:00.614Z,100207.06
2023-05-06T17:43:03.280Z,100209.72
2023-05-06T17:46:06.903Z,100202.66
2023-05-06T17:49:09.534Z,100197.34
2023-05-06T17:52:12.222Z,100193.84
2023-05-06T17:55:17.444Z,100200.00
2023-05-06T17:58:21.476Z,100200.88
2023-05-06T18:01:24.164Z,100197.34
2023-05-06T18:04:27.175Z,100192.94
2023-05-06T18:07:29.835Z,100201.78
2023-05-06T18:10:32.772Z,100204.44
2023-05-06T18:13:36.347Z,100205.28
2023-05-06T18:16:39.264Z,100210.59
2023-05-06T18:19:41.562Z,100207.06
2023-05-06T18:22:44.831Z,100211.50
2023-05-06T18:25:47.284Z,100217.66
2023-05-06T18:28:50.194Z,100220.31
2023-05-06T18:31:52.679Z,100233.53
2023-05-06T18:34:55.676Z,100228.25
2023-05-06T18:37:58.291Z,100229.09
2023-05-06T18:41:01.869Z,100230.87
2023-05-06T18:44:04.679Z,100225.59
2023-05-06T18:47:07.576Z,100223.81
2023-05-06T18:50:10.042Z,100223.81
2023-05-06T18:53:12.851Z,100216.78
2023-05-06T18:56:15.219Z,100215.00
2023-05-06T18:59:19.562Z,100220.31
2023-05-06T19:02:22.232Z,100221.16
2023-05-06T19:05:25.132Z,100221.22
2023-05-06T19:08:27.622Z,100225.59
2023-05-06T19:11:30.628Z,100235.31
2023-05-06T19:14:34.667Z,100237.94
2023-05-06T19:17:37.727Z,100232.63
2023-05-06T19:20:40.458Z,100237.03
2023-05-06T19:23:43.421Z,100237.91
2023-05-06T19:26:46.439Z,100241.50
2023-05-06T19:29:49.551Z,100247.66
2023-05-06T19:32:53.631Z,100252.03
2023-05-06T19:35:57.838Z,100264.13
2023-05-06T19:39:00.202Z,100273.53
2023-05-06T19:42:03.093Z,100280.44
2023-05-06T19:45:08.823Z,100270.69
2023-05-06T19:48:14.589Z,100274.97
2023-05-06T19:51:17.621Z,100284.59
2023-05-06T19:54:20.684Z,100277.66
2023-05-06T19:57:23.079Z,100290.72
2023-05-06T20:00:28.091Z,100312.66
2023-05-06T20:03:31.582Z,100298.63
2023-05-06T20:06:34.248Z,100301.28
2023-05-06T20:09:37.034Z,100297.75
2023-05-06T20:12:43.297Z,100295.16
2023-05-06T20:15:46.049Z,100303.91
2023-05-06T20:18:49.688Z,100312.72
2023-05-06T20:21:52.409Z,100306.56
2023-05-06T20:25:07.211Z,100303.06
2023-05-06T20:28:09.907Z,100293.38
2023-05-06T20:31:12.656Z,100278.47
2023-05-06T20:34:15.480Z,100276.69
2023-05-06T20:37:18.428Z,100272.31
2023-05-06T20:40:21.457Z,100263.53
2023-05-06T20:43:24.876Z,100264.44
2023-05-06T20:46:27.592Z,100256.53
2023-05-06T20:49:30.994Z,100251.25
2023-05-06T20:52:34.239Z,100253.00
2023-05-06T20:55:36.992Z,100250.34
2023-05-06T20:58:41.258Z,100256.56
2023-05-06T21:01:43.927Z,100250.41
2023-05-06T21:04:46.757Z,100241.66
2023-05-06T21:07:49.609Z,100244.34
2023-05-06T21:10:52.260Z,100250.69
2023-05-06T21:13:55.172Z,100252.34
2023-05-06T21:16:57.843Z,100253.19
2023-05-06T21:20:00.819Z,100248.78
2023-05-06T21:23:03.947Z,100246.16
2023-05-06T21:26:06.779Z,100249.69
2023-05-06T21:29:09.503Z,100254.09
2023-05-06T21:32:12.263Z,100248.84
2023-05-06T21:35:18.078Z,100259.38
2023-05-06T21:38:20.860Z,100258.50
2023-05-06T21:41:23.557Z,100261.13
2023-05-06T21:44:26.199Z,100260.25
2023-05-06T21:47:29.119Z,100265.53
2023-05-06T21:50:31.754Z,100269.03
2023-05-06T21:53:34.421Z,100267.28
2023-05-06T21:56:38.039Z,100271.66
2023-05-06T21:59:40.910Z,100269.91
2023-05-06T22:02:43.539Z,100277.81
2023-05-06T22:05:46.370Z,100276.91
2023-05-06T22:08:49.210Z,100275.16
2023-05-06T22:11:51.950Z,100286.56
2023-05-06T22:14:54.586Z,100298.13
2023-05-06T22:17:59.065Z,100291.94
2023-05-06T22:21:03.141Z,100290.28
2023-05-06T22:24:06.041Z,100290.38
2023-05-06T22:27:08.662Z,100287.56
2023-05-06T22:30:11.690Z,100281.50
2023-05-06T22:33:14.286Z,100275.16
2023-05-06T22:36:16.893Z,100270.78
2023-05-06T22:39:19.834Z,100268.25
2023-05-06T22:42:22.464Z,100269.94
2023-05-06T22:45:25.174Z,100268.13
2023-05-06T22:48:27.984Z,100256.59
2023-05-06T22:51:32.145Z,100254.84
2023-05-06T22:54:34.824Z,100250.28
2023-05-06T22:57:37.493Z,100257.31
2023-05-06T23:00:41.401Z,100266.09
2023-05-06T23:03:46.441Z,100262.62
2023-05-06T23:06:49.121Z,100259.09
2023-05-06T23:09:51.841Z,100263.56
2023-05-06T23:12:54.472Z,100260.94
2023-05-06T23:15:57.244Z,100263.56
2023-05-06T23:18:59.937Z,100273.25
2023-05-06T23:22:02.578Z,100265.31
2023-05-06T23:25:05.785Z,100260.06
2023-05-06T23:28:08.424Z,100268.88
2023-05-06T23:31:11.090Z,100259.19
2023-05-06T23:34:16.115Z,100258.31
2023-05-06T23:37:19.160Z,100253.03
2023-05-06T23:40:21.866Z,100260.28
2023-05-06T23:43:24.496Z,100256.72
2023-05-06T23:46:27.203Z,100247.88
2023-05-06T23:49:29.893Z,100251.47
2023-05-06T23:52:32.466Z,100256.66
2023-05-06T23:55:35.799Z,100259.16
2023-05-06T23:58:38.416Z,100254.75
